createdAt,value
2022-08-09T00:00:35.033Z,26.76
2022-08-09T00:04:05.590Z,26.74
2022-08-09T00:06:17.699Z,26.69
2022-08-09T00:08:51.878Z,26.65
2022-08-09T00:11:24.409Z,26.62
2022-08-09T00:13:52.755Z,26.54
2022-08-09T00:16:26.292Z,26.48
2022-08-09T00:19:09.484Z,26.47
2022-08-09T00:21:43.247Z,26.47
2022-08-09T00:24:24.343Z,26.49
2022-08-09T00:26:52.372Z,26.50
2022-08-09T00:30:16.179Z,26.49
2022-08-09T00:32:07.044Z,26.47
2022-08-09T00:34:34.205Z,26.47
2022-08-09T00:37:02.259Z,26.44
2022-08-09T00:40:13.534Z,26.41
2022-08-09T00:44:16.635Z,26.37
2022-08-09T00:45:16.043Z,26.35
2022-08-09T00:47:45.434Z,26.33
2022-08-09T00:50:14.437Z,26.35
2022-08-09T00:52:42.373Z,26.34
2022-08-09T00:55:32.956Z,26.30
2022-08-09T00:57:59.420Z,26.29
2022-08-09T01:00:27.762Z,26.28
2022-08-09T01:03:04.228Z,26.28
2022-08-09T01:05:57.513Z,26.28
2022-08-09T01:08:48.895Z,26.28
2022-08-09T01:11:55.443Z,26.26
2022-08-09T01:14:55.372Z,26.26
2022-08-09T01:17:40.419Z,26.25
2022-08-09T01:20:22.017Z,26.20
2022-08-09T01:24:01.259Z,26.15
2022-08-09T01:26:19.116Z,26.15
2022-08-09T01:28:50.852Z,26.13
2022-08-09T01:32:28.103Z,26.10
2022-08-09T01:34:13.416Z,26.04
2022-08-09T01:36:45.603Z,26.00
2022-08-09T01:39:16.727Z,25.96
2022-08-09T01:41:59.922Z,25.93
2022-08-09T01:44:30.817Z,25.96
2022-08-09T01:47:02.956Z,25.98
2022-08-09T01:49:39.180Z,25.99
2022-08-09T01:52:15.649Z,26.00
2022-08-09T01:54:47.428Z,25.99
2022-08-09T01:57:22.959Z,25.99
2022-08-09T02:00:00.162Z,25.95
2022-08-09T02:02:45.413Z,25.87
2022-08-09T02:05:16.255Z,25.87
2022-08-09T02:08:40.610Z,25.89
2022-08-09T02:10:50.849Z,25.91
2022-08-09T02:13:21.982Z,25.92
2022-08-09T02:15:56.406Z,25.94
2022-08-09T02:18:29.219Z,25.94
2022-08-09T02:20:58.819Z,25.92
2022-08-09T02:23:42.693Z,25.94
2022-08-09T02:26:24.712Z,25.94
2022-08-09T02:29:00.573Z,25.93
2022-08-09T02:31:34.266Z,25.93
2022-08-09T02:34:40.712Z,25.93
2022-08-09T02:37:17.991Z,25.93
2022-08-09T02:39:55.243Z,25.90
2022-08-09T02:42:34.124Z,25.91
2022-08-09T02:45:26.514Z,25.89
2022-08-09T02:47:58.784Z,25.89
2022-08-09T02:50:33.618Z,25.90
2022-08-09T02:53:05.392Z,25.88
2022-08-09T02:55:46.404Z,25.86
2022-08-09T02:58:36.432Z,25.85
2022-08-09T03:01:08.332Z,25.84
2022-08-09T03:04:17.258Z,25.82
2022-08-09T03:06:29.024Z,25.82
2022-08-09T03:08:57.960Z,25.79
2022-08-09T03:12:04.629Z,25.80
2022-08-09T03:14:16.005Z,25.80
2022-08-09T03:16:47.460Z,25.82
2022-08-09T03:19:59.653Z,25.83
2022-08-09T03:22:11.944Z,25.82
2022-08-09T03:25:06.542Z,25.82
2022-08-09T03:27:48.622Z,25.81
2022-08-09T03:30:29.814Z,25.80
2022-08-09T03:33:17.768Z,25.81
2022-08-09T03:36:13.570Z,25.82
2022-08-09T03:38:41.934Z,25.83
2022-08-09T03:41:15.567Z,25.81
2022-08-09T03:44:02.981Z,25.83
2022-08-09T03:46:32.555Z,25.84
2022-08-09T03:49:04.350Z,25.81
2022-08-09T03:51:43.632Z,25.79
2022-08-09T03:54:29.456Z,25.74
2022-08-09T03:57:00.513Z,25.72
2022-08-09T03:59:53.905Z,25.68
2022-08-09T04:02:15.347Z,25.65
2022-08-09T04:04:54.312Z,25.68
2022-08-09T04:07:21.597Z,25.72
2022-08-09T04:09:50.200Z,25.75
2022-08-09T04:12:36.478Z,25.78
2022-08-09T04:15:17.084Z,25.83
2022-08-09T04:17:51.306Z,25.86
2022-08-09T04:20:19.295Z,25.89
2022-08-09T04:22:47.485Z,25.93
2022-08-09T04:25:17.678Z,25.95
2022-08-09T04:27:49.138Z,25.98
2022-08-09T04:30:23.511Z,26.00
2022-08-09T04:32:54.201Z,26.05
2022-08-09T04:35:21.822Z,26.10
2022-08-09T04:37:49.950Z,26.19
2022-08-09T04:40:18.962Z,26.30
2022-08-09T04:42:48.616Z,26.39
2022-08-09T04:45:20.379Z,26.46
2022-08-09T04:48:01.123Z,26.55
2022-08-09T04:50:34.822Z,26.62
2022-08-09T04:53:02.987Z,26.72
2022-08-09T04:55:39.044Z,26.81
2022-08-09T04:58:18.530Z,26.92
2022-08-09T05:00:46.491Z,27.04
2022-08-09T05:03:40.034Z,27.17
2022-08-09T05:06:07.031Z,27.58
2022-08-09T05:08:36.060Z,28.26
2022-08-09T05:11:07.463Z,29.03
2022-08-09T05:13:38.943Z,30.11
2022-08-09T05:16:10.505Z,31.32
2022-08-09T05:18:58.127Z,32.81
2022-08-09T05:21:30.519Z,34.17
2022-08-09T05:24:12.229Z,34.88
2022-08-09T05:26:46.068Z,35.78
2022-08-09T05:29:24.488Z,36.51
2022-08-09T05:32:02.107Z,36.11
2022-08-09T05:34:32.564Z,35.45
2022-08-09T05:37:04.939Z,36.04
2022-08-09T05:39:42.474Z,36.61
2022-08-09T05:42:21.422Z,37.44
2022-08-09T05:44:54.309Z,37.86
2022-08-09T05:47:22.566Z,38.16
2022-08-09T05:50:24.324Z,37.54
2022-08-09T05:52:42.842Z,37.00
2022-08-09T05:55:18.189Z,37.61
2022-08-09T05:57:56.145Z,37.42
2022-08-09T06:00:29.720Z,37.70
2022-08-09T06:03:02.616Z,37.48
2022-08-09T06:05:57.143Z,37.56
2022-08-09T06:08:24.249Z,37.43
2022-08-09T06:10:54.148Z,37.16
2022-08-09T06:13:22.047Z,36.35
2022-08-09T06:15:51.824Z,36.21
2022-08-09T06:18:24.824Z,36.89
2022-08-09T06:20:57.360Z,36.90
2022-08-09T06:23:55.116Z,36.62
2022-08-09T06:26:20.545Z,36.30
2022-08-09T06:29:00.710Z,35.59
2022-08-09T06:31:39.842Z,34.88
2022-08-09T06:34:22.519Z,34.71
2022-08-09T06:36:59.523Z,34.51
2022-08-09T06:39:48.544Z,34.36
2022-08-09T06:42:24.405Z,34.13
2022-08-09T06:44:54.563Z,34.66
2022-08-09T06:47:22.473Z,34.93
2022-08-09T06:50:13.404Z,35.14
2022-08-09T06:52:46.933Z,34.81
2022-08-09T06:55:22.908Z,35.13
2022-08-09T06:58:02.571Z,35.09
2022-08-09T07:00:51.633Z,35.04
2022-08-09T07:03:19.031Z,35.12
2022-08-09T07:05:58.548Z,35.18
2022-08-09T07:08:31.630Z,35.19
2022-08-09T07:10:58.739Z,35.33
2022-08-09T07:13:28.123Z,35.14
2022-08-09T07:16:42.302Z,34.80
2022-08-09T07:18:44.639Z,34.80
2022-08-09T07:21:16.353Z,34.30
2022-08-09T07:23:56.357Z,34.48
2022-08-09T07:26:25.726Z,34.49
2022-08-09T07:29:08.473Z,34.50
2022-08-09T07:31:45.420Z,34.52
2022-08-09T07:34:19.531Z,34.99
2022-08-09T07:36:49.503Z,34.86
2022-08-09T07:39:19.747Z,35.09
2022-08-09T07:41:48.342Z,34.90
2022-08-09T07:44:15.518Z,34.71
2022-08-09T07:46:43.045Z,34.91
2022-08-09T07:49:15.294Z,34.96
2022-08-09T07:52:06.048Z,34.94
2022-08-09T07:54:31.806Z,34.97
2022-08-09T07:56:58.993Z,34.80
2022-08-09T07:59:45.479Z,34.58
2022-08-09T08:02:13.547Z,34.54
2022-08-09T08:04:48.745Z,34.42
2022-08-09T08:08:42.978Z,34.35
2022-08-09T08:10:07.861Z,34.64
2022-08-09T08:12:43.743Z,34.47
2022-08-09T08:15:16.443Z,34.18
2022-08-09T08:17:52.992Z,34.37
2022-08-09T08:20:30.801Z,34.20
2022-08-09T08:23:06.958Z,34.22
2022-08-09T08:25:48.297Z,34.16
2022-08-09T08:28:31.909Z,34.17
2022-08-09T08:31:04.671Z,33.66
2022-08-09T08:33:52.054Z,33.75
2022-08-09T08:36:28.470Z,34.17
2022-08-09T08:38:57.244Z,34.28
2022-08-09T08:41:24.797Z,34.46
2022-08-09T08:44:09.835Z,34.17
2022-08-09T08:47:02.439Z,33.94
2022-08-09T08:49:47.250Z,33.96
2022-08-09T08:55:15.367Z,33.36
2022-08-09T08:57:56.348Z,33.46
2022-08-09T09:00:27.342Z,33.34
2022-08-09T09:03:11.485Z,33.32
2022-08-09T09:05:59.821Z,33.15
2022-08-09T09:08:52.349Z,33.01
2022-08-09T09:11:20.805Z,32.68
2022-08-09T09:13:56.554Z,32.52
2022-08-09T09:16:34.549Z,32.09
2022-08-09T09:22:00.618Z,30.98
2022-08-09T09:24:33.194Z,30.47
2022-08-09T09:27:03.446Z,30.45
2022-08-09T09:29:45.973Z,30.17
2022-08-09T09:32:34.644Z,30.13
2022-08-09T09:35:07.497Z,30.24
2022-08-09T09:37:40.660Z,30.20
2022-08-09T09:40:11.613Z,30.30
2022-08-09T09:42:39.489Z,30.27
2022-08-09T09:45:10.570Z,30.24
2022-08-09T09:47:56.215Z,30.25
2022-08-09T09:50:55.954Z,30.25
2022-08-09T09:53:57.881Z,30.28
2022-08-09T09:56:20.134Z,30.33
2022-08-09T09:58:59.589Z,30.48
2022-08-09T10:01:31.544Z,30.56
2022-08-09T10:04:30.930Z,30.54
2022-08-09T10:07:03.267Z,30.59
2022-08-09T10:09:54.794Z,30.74
2022-08-09T10:12:43.611Z,30.74
2022-08-09T10:15:51.113Z,30.53
2022-08-09T10:18:11.864Z,30.64
2022-08-09T10:20:45.072Z,30.73
2022-08-09T10:23:20.039Z,30.65
2022-08-09T10:26:06.307Z,30.73
2022-08-09T10:28:37.455Z,30.64
2022-08-09T10:32:27.560Z,30.67
2022-08-09T10:34:09.658Z,30.76
2022-08-09T10:36:42.082Z,30.82
2022-08-09T10:39:13.983Z,30.90
2022-08-09T10:41:47.832Z,30.97
2022-08-09T10:44:23.308Z,30.92
2022-08-09T10:46:57.441Z,30.84
2022-08-09T10:49:54.232Z,30.99
2022-08-09T10:52:56.722Z,30.90
2022-08-09T10:55:35.771Z,30.94
2022-08-09T10:58:34.752Z,31.11
2022-08-09T11:03:06.676Z,31.08
2022-08-09T11:04:19.672Z,31.28
2022-08-09T11:07:00.226Z,31.18
2022-08-09T11:09:56.180Z,30.80
2022-08-09T11:12:29.948Z,31.03
2022-08-09T11:15:23.971Z,31.20
2022-08-09T11:18:02.899Z,31.38
2022-08-09T11:20:45.674Z,31.29
2022-08-09T11:23:13.884Z,31.13
2022-08-09T11:25:47.880Z,31.26
2022-08-09T11:28:54.457Z,31.48
2022-08-09T11:31:43.293Z,31.63
2022-08-09T11:34:35.484Z,31.48
2022-08-09T11:37:07.196Z,31.49
2022-08-09T11:40:02.905Z,31.51
2022-08-09T11:42:49.329Z,31.36
2022-08-09T11:45:37.658Z,31.20
2022-08-09T11:48:19.502Z,30.53
2022-08-09T11:52:53.989Z,30.28
2022-08-09T11:54:13.817Z,30.19
2022-08-09T11:56:48.493Z,30.04
2022-08-09T11:59:34.117Z,30.11
2022-08-09T12:02:17.502Z,30.13
2022-08-09T12:04:54.724Z,30.21
2022-08-09T12:07:34.465Z,30.34
2022-08-09T12:10:38.038Z,30.45
2022-08-09T12:12:58.610Z,30.46
2022-08-09T12:15:48.836Z,30.48
2022-08-09T12:18:25.928Z,30.33
2022-08-09T12:20:59.300Z,30.51
2022-08-09T12:23:57.892Z,30.95
2022-08-09T12:26:25.327Z,30.82
2022-08-09T12:29:14.710Z,30.77
2022-08-09T12:31:59.013Z,30.68
2022-08-09T12:34:39.837Z,31.01
2022-08-09T12:37:21.824Z,31.12
2022-08-09T12:40:27.507Z,31.17
2022-08-09T12:42:56.315Z,31.02
2022-08-09T12:45:33.797Z,30.83
2022-08-09T12:48:19.804Z,31.25
2022-08-09T12:50:55.850Z,31.24
2022-08-09T12:53:36.711Z,31.36
2022-08-09T12:56:39.857Z,31.30
2022-08-09T12:59:15.663Z,31.05
2022-08-09T13:01:49.716Z,31.08
2022-08-09T13:04:33.207Z,31.17
2022-08-09T13:07:19.313Z,31.19
2022-08-09T13:09:55.807Z,31.07
2022-08-09T13:12:29.532Z,30.92
2022-08-09T13:15:08.343Z,30.78
2022-08-09T13:18:02.491Z,30.43
2022-08-09T13:20:37.214Z,30.49
2022-08-09T13:24:44.578Z,30.38
2022-08-09T13:26:06.456Z,30.64
2022-08-09T13:28:39.447Z,30.62
2022-08-09T13:32:16.050Z,30.40
2022-08-09T13:33:57.566Z,30.28
2022-08-09T13:36:41.032Z,30.09
2022-08-09T13:41:21.288Z,30.10
2022-08-09T13:42:12.548Z,30.06
2022-08-09T13:44:42.788Z,29.89
2022-08-09T13:47:33.097Z,29.78
2022-08-09T13:50:01.806Z,29.67
2022-08-09T13:52:30.837Z,29.57
2022-08-09T13:55:01.752Z,29.35
2022-08-09T13:57:40.313Z,29.41
2022-08-09T14:00:15.465Z,29.37
2022-08-09T14:03:03.277Z,29.45
2022-08-09T14:05:59.082Z,29.46
2022-08-09T14:08:21.721Z,29.38
2022-08-09T14:10:52.689Z,29.31
2022-08-09T14:13:28.364Z,29.24
2022-08-09T14:16:15.611Z,29.12
2022-08-09T14:18:49.062Z,29.01
2022-08-09T14:21:20.426Z,28.97
2022-08-09T14:23:53.684Z,29.02
2022-08-09T14:26:32.046Z,29.06
2022-08-09T14:29:03.455Z,28.99
2022-08-09T14:31:52.256Z,28.97
2022-08-09T14:34:32.435Z,28.92
2022-08-09T14:37:07.904Z,28.84
2022-08-09T14:39:45.743Z,28.56
2022-08-09T14:42:30.134Z,28.51
2022-08-09T14:46:40.562Z,28.39
2022-08-09T14:47:57.423Z,28.38
2022-08-09T14:50:28.905Z,28.41
2022-08-09T14:52:56.663Z,28.36
2022-08-09T14:55:25.035Z,28.35
2022-08-09T14:57:52.304Z,28.37
2022-08-09T15:00:22.477Z,28.34
2022-08-09T15:02:51.862Z,28.38
2022-08-09T15:05:20.392Z,28.38
2022-08-09T15:07:56.132Z,28.46
2022-08-09T15:10:31.580Z,28.54
2022-08-09T15:13:03.163Z,28.61
2022-08-09T15:15:34.504Z,28.56
2022-08-09T15:18:13.989Z,28.55
2022-08-09T15:21:57.883Z,28.54
2022-08-09T15:24:01.493Z,28.55
2022-08-09T15:26:31.386Z,28.37
2022-08-09T15:29:04.268Z,28.05
2022-08-09T15:31:40.748Z,28.01
2022-08-09T15:34:32.957Z,28.00
2022-08-09T15:36:56.026Z,28.05
2022-08-09T15:39:34.844Z,28.05
2022-08-09T15:42:14.825Z,28.11
2022-08-09T15:44:42.400Z,28.13
2022-08-09T15:47:14.536Z,28.10
2022-08-09T15:50:03.876Z,28.13
2022-08-09T15:52:34.025Z,28.21
2022-08-09T15:55:02.382Z,28.27
2022-08-09T15:57:35.982Z,28.31
2022-08-09T16:00:26.742Z,28.29
2022-08-09T16:02:56.193Z,28.29
2022-08-09T16:05:47.301Z,28.29
2022-08-09T16:08:30.459Z,28.26
2022-08-09T16:11:03.403Z,28.27
2022-08-09T16:14:03.695Z,28.31
2022-08-09T16:16:20.042Z,28.32
2022-08-09T16:18:53.511Z,28.26
2022-08-09T16:21:25.559Z,28.29
2022-08-09T16:23:55.578Z,28.37
2022-08-09T16:26:33.891Z,28.34
2022-08-09T16:29:11.068Z,28.36
2022-08-09T16:32:19.132Z,28.42
2022-08-09T16:34:54.556Z,28.43
2022-08-09T16:37:54.889Z,28.48
2022-08-09T16:40:29.692Z,28.50
2022-08-09T16:43:04.974Z,28.57
2022-08-09T16:45:32.961Z,28.58
2022-08-09T16:48:41.538Z,28.62
2022-08-09T16:50:58.718Z,28.65
2022-08-09T16:53:34.275Z,28.68
2022-08-09T16:56:09.351Z,28.74
2022-08-09T16:58:49.946Z,28.81
2022-08-09T17:01:19.503Z,28.86
2022-08-09T17:03:51.166Z,28.94
2022-08-09T17:06:29.106Z,28.95
2022-08-09T17:09:17.537Z,29.00
2022-08-09T17:11:52.665Z,29.04
2022-08-09T17:14:27.588Z,29.07
2022-08-09T17:17:01.316Z,29.06
2022-08-09T17:19:47.185Z,29.12
2022-08-09T17:22:34.028Z,29.10
2022-08-09T17:25:10.227Z,29.10
2022-08-09T17:27:49.303Z,28.95
2022-08-09T17:30:22.565Z,28.91
2022-08-09T17:32:53.436Z,28.83
2022-08-09T17:35:20.726Z,28.83
2022-08-09T17:38:02.333Z,28.83
2022-08-09T17:40:35.952Z,28.79
2022-08-09T17:43:32.025Z,28.76
2022-08-09T17:46:04.247Z,28.73
2022-08-09T17:48:40.262Z,28.74
2022-08-09T17:51:18.149Z,28.73
2022-08-09T17:53:52.159Z,28.71
2022-08-09T17:56:28.819Z,28.64
2022-08-09T17:59:03.216Z,28.63
2022-08-09T18:02:06.144Z,28.55
2022-08-09T18:04:23.556Z,28.49
2022-08-09T18:06:55.216Z,28.42
2022-08-09T18:09:40.011Z,28.35
2022-08-09T18:12:17.173Z,28.27
2022-08-09T18:14:57.330Z,28.17
2022-08-09T18:17:27.400Z,28.11
2022-08-09T18:20:59.575Z,28.08
2022-08-09T18:23:05.681Z,27.99
2022-08-09T18:25:50.272Z,27.97
2022-08-09T18:30:42.517Z,27.90
2022-08-09T18:31:12.286Z,27.82
2022-08-09T18:33:40.343Z,27.79
2022-08-09T18:36:14.154Z,27.79
2022-08-09T18:38:55.142Z,27.75
2022-08-09T18:41:27.765Z,27.75
2022-08-09T18:43:55.078Z,27.69
2022-08-09T18:46:49.451Z,27.62
2022-08-09T18:49:10.834Z,27.58
2022-08-09T18:51:54.558Z,27.63
2022-08-09T18:54:29.583Z,27.73
2022-08-09T18:57:05.136Z,27.80
2022-08-09T18:59:37.286Z,27.72
2022-08-09T19:02:15.926Z,27.49
2022-08-09T19:04:43.279Z,27.17
2022-08-09T19:07:16.295Z,26.75
2022-08-09T19:10:14.485Z,26.44
2022-08-09T19:12:37.614Z,26.28
2022-08-09T19:15:07.082Z,26.12
2022-08-09T19:17:54.841Z,25.97
2022-08-09T19:20:24.033Z,25.82
2022-08-09T19:22:54.432Z,25.76
2022-08-09T19:25:41.646Z,25.74
2022-08-09T19:28:13.109Z,25.69
2022-08-09T19:30:44.268Z,25.53
2022-08-09T19:33:19.313Z,25.43
2022-08-09T19:35:57.594Z,25.38
2022-08-09T19:38:27.851Z,25.19
2022-08-09T19:40:59.700Z,25.14
2022-08-09T19:44:01.498Z,25.13
2022-08-09T19:46:15.097Z,25.12
2022-08-09T19:49:01.759Z,25.08
2022-08-09T19:51:30.749Z,25.07
2022-08-09T19:54:01.506Z,25.01
2022-08-09T19:56:29.890Z,24.97
2022-08-09T19:59:39.599Z,24.92
2022-08-09T20:02:05.248Z,24.82
2022-08-09T20:04:40.791Z,24.79
2022-08-09T20:07:15.999Z,24.82
2022-08-09T20:09:49.119Z,24.80
2022-08-09T20:12:29.970Z,24.79
2022-08-09T20:16:31.791Z,24.84
2022-08-09T20:17:54.714Z,24.82
2022-08-09T20:20:24.625Z,24.83
2022-08-09T20:22:56.489Z,24.84
2022-08-09T20:25:25.338Z,24.89
2022-08-09T20:27:52.598Z,24.92
2022-08-09T20:30:23.750Z,24.96
2022-08-09T20:32:52.460Z,24.99
2022-08-09T20:35:21.576Z,25.02
2022-08-09T20:38:21.172Z,25.06
2022-08-09T20:40:36.356Z,25.06
2022-08-09T20:43:18.493Z,25.08
2022-08-09T20:45:59.497Z,25.10
2022-08-09T20:48:31.048Z,25.08
2022-08-09T20:50:59.882Z,25.09
2022-08-09T20:53:36.867Z,25.08
2022-08-09T20:56:20.743Z,25.10
2022-08-09T20:58:54.627Z,25.13
2022-08-09T21:01:34.012Z,25.16
2022-08-09T21:05:52.071Z,25.15
2022-08-09T21:07:12.534Z,25.14
2022-08-09T21:09:55.707Z,25.14
2022-08-09T21:15:15.231Z,25.20
2022-08-09T21:18:11.773Z,25.22
2022-08-09T21:20:31.772Z,25.25
2022-08-09T21:23:00.451Z,25.26
2022-08-09T21:25:55.436Z,25.26
2022-08-09T21:28:35.058Z,25.29
2022-08-09T21:31:13.510Z,25.35
2022-08-09T21:33:52.156Z,25.39
2022-08-09T21:36:28.935Z,25.44
2022-08-09T21:38:59.173Z,25.48
2022-08-09T21:42:04.739Z,25.51
2022-08-09T21:44:34.045Z,25.54
2022-08-09T21:47:07.967Z,25.54
2022-08-09T21:49:39.858Z,25.58
2022-08-09T21:52:16.408Z,25.61
2022-08-09T21:55:03.147Z,25.62
2022-08-09T21:57:39.148Z,25.62
2022-08-09T22:00:32.304Z,25.63
2022-08-09T22:03:04.811Z,25.67
2022-08-09T22:05:36.974Z,25.70
2022-08-09T22:08:13.771Z,25.73
2022-08-09T22:11:26.474Z,25.74
2022-08-09T22:13:35.476Z,25.72
2022-08-09T22:16:08.293Z,25.69
2022-08-09T22:18:38.632Z,25.69
2022-08-09T22:21:24.173Z,25.71
2022-08-09T22:24:01.570Z,25.74
2022-08-09T22:26:35.562Z,25.78
2022-08-09T22:29:09.461Z,25.78
2022-08-09T22:31:50.368Z,25.79
2022-08-09T22:34:25.574Z,25.80
2022-08-09T22:36:54.124Z,25.81
2022-08-09T22:39:57.412Z,25.81
2022-08-09T22:42:21.483Z,25.81
2022-08-09T22:45:11.578Z,25.81
2022-08-09T22:48:16.603Z,25.81
2022-08-09T22:50:29.859Z,25.81
2022-08-09T22:52:58.651Z,25.81
2022-08-09T22:55:33.775Z,25.82
2022-08-09T22:58:20.200Z,25.82
2022-08-09T23:00:57.973Z,25.83
2022-08-09T23:03:31.180Z,25.82
2022-08-09T23:06:14.281Z,25.80
2022-08-09T23:08:44.517Z,25.80
2022-08-09T23:11:21.245Z,25.79
2022-08-09T23:13:53.559Z,25.78
2022-08-09T23:16:23.099Z,25.82
2022-08-09T23:18:50.251Z,25.83
2022-08-09T23:21:24.509Z,25.84
2022-08-09T23:24:05.722Z,25.85
2022-08-09T23:26:38.558Z,25.82
2022-08-09T23:29:07.521Z,25.80
2022-08-09T23:31:34.709Z,25.81
2022-08-09T23:34:02.649Z,25.79
2022-08-09T23:36:31.219Z,25.80
2022-08-09T23:38:58.384Z,25.81
2022-08-09T23:41:27.577Z,25.82
2022-08-09T23:43:57.994Z,25.82
2022-08-09T23:46:25.094Z,25.86
2022-08-09T23:48:52.275Z,25.86
2022-08-09T23:51:19.379Z,25.87
2022-08-09T23:53:47.342Z,25.86
2022-08-09T23:56:18.222Z,25.86
2022-08-09T23:59:05.111Z,25.85
